Water Levels and Discharges  |  Reservoirs  |  Precipitation  |  Water quality Last site revision 23.03.2019 14:21
             
Water Levels and Discharges CAUTION: All data are without validation 23.03.2019 14:23:00
Any delay data CHMI stations is caused by the delay of data transfer between CHMI and the PLA, current data are on www.chmi.cz
All facilities Závod Jablonec nad Nisou Závod Pardubice Závod Roudnice nad Labem Selected Stations
Measurement summary  23.03.2019All facilities
Station River  Indikace řazeníGraph Last measured
Qa
Q355
Remark
water levelDischarge
[cm] ([h])[m3.s-1] ([h])[m3.s-1][m3.s-1]
 Mlýnice  Albrechtický potok 16 ( 14:00 ) 0.129 ( 14:00 ) 0.098 0.012
 Jedlová v Orlických horách  Bělá 44 ( 13:15 ) 1.681 ( 13:15 ) 0.621 0.102
 Častolovice  Bělá 47 ( 14:00 ) 4.538 ( 14:00 ) 2.610 0.317
 Skuhrov  Bělá 39 ( 14:00 ) 2.866 ( 14:00 ) 0.980 0.191
 Rohoznice  Bystřice 49 ( 14:00 ) 0.715 ( 14:00 ) 0.344 0.033
 Jezdecká  Černá Desná 53 ( 14:00 ) 0.443 ( 14:00 ) 0.191 0.033
 Souš  Černá Desná 18 ( 13:45 ) 0.126 ( 13:45 ) 0.315 0.014
 Uhlířská  Černá Nisa 50 ( 14:00 ) 0.101 ( 14:00 ) 0.057 0.009
 Rudolfov  Černá Nisa 13 ( 13:45 ) 0.402 ( 13:45 ) 0.274 0.058
 Přemilov  Chrudimka 85 ( 14:00 ) 3.365 ( 14:00 ) 2.190 0.263
 Nemošice  Chrudimka 62 ( 14:00 ) 7.136 ( 14:00 ) 5.840 0.896 Stanice ČHMÚ
 Mezisvětí  Chrudimka 57 ( 14:00 ) 3.128 ( 14:00 ) 2.620 0.607
 Padrty  Chrudimka 89 ( 14:00 ) 3.248 ( 14:00 ) 2.360 0.538
 Hamry  Chrudimka 20 ( 14:00 ) 1.004 ( 14:00 ) 0.587 0.063
 Lány  Chrudimka 36 ( 14:00 ) 0.273 ( 14:00 ) 0.320 0.031
 Svídnice  Chrudimka 40 ( 14:00 ) 3.511 ( 14:00 ) 2.740 0.519
 Nový Bydžov  Cidlina 57 ( 14:00 ) 3.222 ( 14:00 ) 2.740 0.239 Stanice ČHMÚ
 Chlumec nad Cidlinou  Cidlina 41 ( 14:00 ) 0.534 ( 14:00 ) 5.090 0.318 Hodnota průtoku pro vodní stav pod 40 cm je pouze orientační.
 Jičín  Cidlina 21 ( 14:00 ) 0.505 ( 14:00 ) 0.329 0.020 Stanice ČHMÚ - hladina může být pod úrovní nuly vodočtu.
 Sány  Cidlina 59 ( 14:00 ) 4.870 ( 14:00 ) 5.200 0.118 Stanice ČHMÚ
 Hostinné  Čistá 56 ( 14:00 ) 2.427 ( 14:00 ) 1.300 0.242
 Mitrov  Dědina 52 ( 14:00 ) 1.920 ( 14:00 ) 2.110 0.129 Stanice ČHMÚ
 Žákovec  Dědina 48 ( 14:00 ) 1.596 ( 14:00 ) 0.570 0.071
 Chábory  Dědina 44 ( 14:00 ) 1.852 ( 14:00 ) 0.956 0.070 Stanice ČHMÚ
 Litice  Divoká Orlice 71 ( 14:00 ) 15.95 ( 14:00 ) 5.290 1.080
 Nekoř  Divoká Orlice 44 ( 14:15 ) 7.535 ( 14:15 ) 3.710 0.837
 Kostelec nad Orlicí  Divoká Orlice 81 ( 14:00 ) 20.00 ( 14:00 ) 8.040 1.560 Stanice ČHMÚ
 Orlické Záhoří  Divoká Orlice 25 ( 14:00 ) 2.840 ( 14:00 ) 1.130 0.165 Stanice ČHMÚ
 Klášterec nad Orlicí  Divoká Orlice 40 ( 14:15 ) 6.981 ( 14:15 ) 3.480 0.560
 Žleby  Doubrava 52 ( 14:00 ) 3.158 ( 14:00 ) 2.760 0.280 Stanice ČHMÚ
 Pařížov  Doubrava 31 ( 14:00 ) 2.322 ( 14:00 ) 1.760 0.191 Hladina může být pod úrovní nuly vodočtu.
 Spačice  Doubrava 80 ( 14:00 ) 2.414 ( 14:00 ) 1.740 0.175
 Bílek  Doubrava 54 ( 14:00 ) 1.023 ( 14:00 ) 0.684 0.041 Stanice ČHMÚ
 Velký Dřevíč  Dřevíč 41 ( 14:00 ) 0.940 ( 14:00 ) 0.666 0.131
 Fojtka  Fojtka 21 ( 14:00 ) 0.194 ( 14:00 ) 0.135 0.024
 Harcov  Harcovský potok 13 ( 14:10 ) 0.406 ( 14:10 ) 0.193 0.031
 Lázně Bělohrad  Javorka 32 ( 14:00 ) 0.568 ( 14:00 ) 0.380 0.099 Stanice ČHMÚ
 Mníšek  Jeřice 19 ( 14:00 ) 0.530 ( 14:00 ) 0.500 0.130
 Železný Brod  Jizera 164 ( 14:10 ) 33.24 ( 14:10 ) 17.20 4.010 Stanice ČHMÚ
 Předměřice  Jizera 199 ( 14:00 ) 37.35 ( 14:00 ) 24.30 5.610 Stanice ČHMÚ
 Turnov  Jizera 26 ( 14:00 ) 18.50 5.000 Hladina může být pod úrovní nuly vodočtu.
 Bakov nad Jizerou  Jizera 248 ( 14:10 ) 38.22 ( 14:10 ) 23.30 6.340 Stanice ČHMÚ
 Jablonec nad Jizerou  Jizera 57 ( 14:10 ) 12.36 ( 14:10 ) 5.620 1.250 Stanice ČHMÚ
 Dolní Sytová  Jizera 92 ( 14:00 ) 20.04 ( 14:00 ) 8.860 2.130
 Dolní Štěpanice  Jizerka 101 ( 14:00 ) 3.345 ( 14:00 ) 1.290 0.251
 Dolní Olešnice  Kalenský potok 28 ( 14:00 ) 0.765 ( 14:00 ) 0.633 0.136
 Plavy  Kamenice 63 ( 14:15 ) 7.841 ( 14:15 ) 3.680 0.830
 Josefův Důl  Kamenice 15 ( 14:15 ) 0.412 ( 14:15 ) 0.405 0.054
 Kristiánov  Kamenice 39 ( 14:15 ) 1.032 ( 14:15 ) 0.262 0.059 Hladina může být pod úrovní nuly vodočtu.
 Rychnov nad Kněžnou  Kněžná 37 ( 14:00 ) 1.404 ( 14:00 ) 0.903 0.062
 Otradov  Krounka -1 ( 14:00 ) 0.142 ( 14:00 ) 0.467 0.008 Hladina může být pod úrovní nuly vodočtu.
 Mělník  Labe 303 ( 14:10 ) 405.0 ( 07:00 ) 256.0 82.20 Stanice ČHMÚ - průtok nezávisí na vodním stavu, vodní stav je ovlivněn vzdutím. Hodnoty průtoku jsou určeny součtem průtoků v Labi a Vltavě.
 Nymburk  Labe 84.45 ( 14:00 ) 73.70 19.30 Stanice ČHMÚ - průtok nezávisí na vodním stavu, vodní stav je ovlivněn vzdutím. Hodnoty průtoku jsou určeny součtem průtoků vodní elektrárny, jezu a limnigrafu Vestec.
 Hostinné  Labe 36 ( 14:00 ) 6.976 ( 14:00 ) 6.080 1.340
 Opatovice nad Labem  Labe 225.19 * ( 14:00 ) 46.50 12.80
 Němčice  Labe 173 ( 14:00 ) 63.40 ( 14:00 ) 47.10 13.00 Stanice ČHMÚ
 Ústí nad Labem  Labe 334 ( 14:10 ) 492.4 ( 14:10 ) 296.0 97.90 Stanice ČHMÚ
 Špindlerův Mlýn  Labe 111 ( 14:15 ) 3.900 ( 14:15 ) 2.430 0.416
 Vestřev  Labe 48 ( 14:00 ) 9.868 ( 14:00 ) 6.860 1.420 Stanice ČHMÚ
 Brod  Labe 183 ( 14:00 ) 12.06 ( 14:00 ) 10.00 2.340
 Brandýs nad Labem  Labe 157 ( 14:00 ) 145.1 ( 14:00 ) 102.9 26.20 Průtok nezávisí na vodním stavu, vodní stav je ovlivněn vzdutím. Hodnoty průtoku jsou určeny součtem průtoků vodní elektrárny a jezu.
 Přelouč  Labe 118 ( 14:00 ) 78.60 ( 14:00 ) 59.20 17.00 Stanice ČHMÚ
 Střekov  Labe 141.39 * ( 14:00 ) 489.0 ( 14:00 ) 296.0 97.90
 Děčín  Labe 310 ( 14:10 ) 507.0 ( 14:10 ) 315.0 108.0 Stanice ČHMÚ
 Labská  Labe 26 ( 14:15 ) 3.064 ( 14:15 ) 2.690 0.525
 Litoměřice  Labe 303 ( 14:00 ) 296.0 98.60
 Jaroměř  Labe 235 ( 14:00 ) 17.54 ( 14:00 ) 17.20 4.530 Stanice ČHMÚ
 Les Království  Labe 69 ( 14:00 ) 12.53 ( 14:00 ) 8.890 2.200
 Kostelec nad Labem  Labe 409 ( 14:10 ) 121.2 ( 14:00 ) 104.0 26.00 Stanice ČHMÚ - průtok nezávisí na vodním stavu, vodní stav je ovlivněn vzdutím. Hodnoty průtoku jsou určeny součtem průtoků vodní elektrárny a jezu. Průtoky odvozené měrnou křivkou jsou k dispozici od vodního stavu 601 cm.
 Zaječice  Ležák 29 ( 14:00 ) 1.086 ( 14:00 ) 0.527 0.030
 Litomyšl  Loučná 17 ( 14:00 ) 0.061 ( 14:00 ) 0.559 0.032
 Cerekvice nad Loučnou  Loučná 43 ( 14:00 ) 0.775 ( 14:00 ) 1.790 0.380 Stanice ČHMÚ
 Dašice  Loučná 88 ( 14:00 ) 1.902 ( 14:00 ) 3.600 1.290 Stanice ČHMÚ
 Proseč nad Nisou  Lužická Nisa 42 ( 14:00 ) 2.268 ( 14:00 ) 1.100 0.267
 Liberec  Lužická Nisa 59 ( 14:00 ) 3.888 ( 14:00 ) 2.050 0.559 Stanice ČHMÚ
 Hrádek nad Nisou  Lužická Nisa 48 ( 14:00 ) 9.427 ( 14:00 ) 5.460 1.630 Stanice ČHMÚ
 Prosečné  Malé Labe 71 ( 14:00 ) 3.205 ( 14:00 ) 1.700 0.381
 Horní Lánov  Malé Labe 24 ( 14:00 ) 2.180 ( 14:00 ) 1.270 0.319
 Maršov nad Metují  Metuje 38 ( 14:00 ) 0.944 ( 14:00 ) 1.030 0.315 Stanice ČHMÚ
 Jaroměř  Metuje 46 ( 14:00 ) 6.102 ( 14:00 ) 7.050 1.930
 Hronov  Metuje 27 ( 14:00 ) 3.002 ( 14:00 ) 2.770 0.806 Stanice ČHMÚ
 Krčín  Metuje 54 ( 14:00 ) 6.948 ( 14:00 ) 5.330 1.440 Stanice ČHMÚ
 Chocnějovice  Mohelka 63 ( 14:00 ) 2.694 ( 14:00 ) 1.660 0.345
 Vestec  Mrlina 19 ( 14:00 ) 0.604 ( 14:00 ) 1.410 0.085 Stanice ČHMÚ
 Mšeno  Mšenský potok 29 ( 14:00 ) 0.272 ( 14:00 ) 0.092 0.018
 Janov-Harrachov  Mumlava 105 ( 14:00 ) 3.967 ( 14:00 ) 2.050 0.415
 Úhřetice  Novohradka 86 ( 14:00 ) 2.992 ( 14:00 ) 2.520 0.185 Stanice ČHMÚ
 Luže  Novohradka 36 ( 14:00 ) 0.906 ( 14:00 ) 1.220 0.120 Stanice ČHMÚ
 Louny  Ohře 295 ( 14:00 ) 78.90 ( 14:00 ) 37.30 7.680 Stanice ČHMÚ
 Peklo  Olešenka 61 ( 14:00 ) 1.581 ( 14:00 ) 0.505 0.091
 Slaná  Oleška 59 ( 14:00 ) 2.507 ( 14:00 ) 1.510 0.177
 Hradec Králové  Orlice 228.01 * ( 12:45 ) 44.35 ( 12:45 ) 21.80 4.490
 Týniště nad Orlicí  Orlice 190 ( 14:00 ) 36.20 ( 14:00 ) 18.60 3.730 Stanice ČHMÚ
 Chotěvice  Pilníkovský potok 48 ( 14:00 ) 1.096 ( 14:00 ) 0.923 0.227
 Frýdlant - Řasnice  Řasnice 17 ( 14:00 ) 0.249 ( 14:00 ) 0.360 0.063
 Žamberk  Rokytenka 46 ( 14:00 ) 1.482 ( 14:00 ) 0.893 0.098
 Rozkoš  Rozkošský potok 0.080 ( 14:15 ) 0.427 0.074
 Český Brod  Šembera 9 ( 14:00 ) 0.149 0.014
 Bílý Potok  Smědá 0.939 0.180 Stanice ČHMÚ
 Předlánce  Smědá 37 ( 14:00 ) 4.298 ( 14:00 ) 4.270 1.062 Stanice ČHMÚ - hladina může být pod úrovní nuly vodočtu.
 Frýdlant  Smědá 31 ( 14:00 ) 4.816 ( 14:00 ) 3.180 0.781 Stanice ČHMÚ
 Otovice  Stěnava 56 ( 14:00 ) 1.962 ( 14:00 ) 1.990 0.441 Stanice ČHMÚ
 Meziměstí  Stěnava 26 ( 14:00 ) 0.852 ( 14:00 ) 0.766 0.164 Stanice ČHMÚ
 Svídnice  Štítarský potok 37 ( 14:00 ) 0.123 ( 14:00 ) 0.492 0.029
 Čermná nad Orlicí  Tichá Orlice 87 ( 14:00 ) 8.544 ( 14:00 ) 7.340 1.920 Stanice ČHMÚ
 Dolní Libchavy  Tichá Orlice 52 ( 14:00 ) 6.786 ( 14:00 ) 4.330 0.932 Stanice ČHMÚ
 Lichkov  Tichá Orlice 5 ( 14:00 ) 0.339 ( 14:00 ) 1.090 0.216 Hladina může být pod úrovní nuly vodočtu.
 Sobkovice  Tichá Orlice 33 ( 14:00 ) 1.741 ( 14:00 ) 1.610 0.270
 Ústí nad Orlicí  Třebovka 35 ( 14:00 ) 0.634 ( 14:00 ) 1.090 0.215 Stanice ČHMÚ
 Třebovice  Třebovka 41 ( 13:45 ) 0.665 ( 13:45 ) 0.445 0.080
 Slatina nad Úpou  Úpa 63 ( 14:00 ) 12.27 ( 14:00 ) 6.700 1.700
 Zlíč  Úpa 41 ( 14:15 ) 2.425 ( 14:15 ) 6.310 1.630
 Horní Maršov  Úpa 41 ( 14:00 ) 4.558 ( 14:00 ) 2.580 0.578 Stanice ČHMÚ
 Horní Staré Město  Úpa 44 ( 14:00 ) 7.010 ( 14:00 ) 4.010 1.130 Stanice ČHMÚ
 Vraňany  Vltava 177 ( 14:10 ) 286.6 ( 14:10 ) 152.0 28.00 Stanice ČHMÚ
 Vrchlice  Vrchlice 10 ( 14:00 ) 0.034 ( 14:00 ) 0.319 0.030
 Malešov  Vrchlice 33 ( 14:00 ) 0.280 ( 14:00 ) 0.328 0.002
 Plaňany  Výrovka 22 ( 14:10 ) 0.724 ( 14:10 ) 0.764 0.105 Stanice ČHMÚ
 Slatina nad Zdobnicí  Zdobnice 90 ( 14:00 ) 5.450 ( 14:00 ) 1.950 0.303 Stanice ČHMÚ
* [m asl]
Qaaverage discharge
Q355average daily discharge reached or exceeded 355 days a year
Tyto informace jsou dostupné i přes aplikaci pro mobilní telefony s OS Android (Stavy a průtoky), Windows (Stavy a průtoky)
  Povodí Labe, státní podnik © 2019 The system uses also data from measuring stations of   Czech Hydrometeorological Institute © 2019 Application developed by   MGE Data s.r.o. © 1996 - 2014